sensor_id;sensor_type;location;lat;lon;timestamp;P1;durP1;ratioP1;P2;durP2;ratioP2
71164;SDS011;58859;55.132;-1.586;2023-06-14T00:01:36;7.85;;;5.13;;
71164;SDS011;58859;55.132;-1.586;2023-06-14T00:04:03;12.88;;;5.95;;
71164;SDS011;58859;55.132;-1.586;2023-06-14T00:06:31;6.82;;;5.22;;
71164;SDS011;58859;55.132;-1.586;2023-06-14T00:08:56;7.70;;;4.97;;
71164;SDS011;58859;55.132;-1.586;2023-06-14T00:11:21;12.57;;;5.60;;
71164;SDS011;58859;55.132;-1.586;2023-06-14T00:13:47;6.73;;;4.70;;
71164;SDS011;58859;55.132;-1.586;2023-06-14T00:16:12;6.57;;;5.30;;
71164;SDS011;58859;55.132;-1.586;2023-06-14T00:18:38;11.07;;;5.20;;
71164;SDS011;58859;55.132;-1.586;2023-06-14T00:21:04;7.60;;;5.20;;
71164;SDS011;58859;55.132;-1.586;2023-06-14T00:23:29;7.68;;;5.03;;
71164;SDS011;58859;55.132;-1.586;2023-06-14T00:25:55;8.60;;;4.77;;
71164;SDS011;58859;55.132;-1.586;2023-06-14T00:28:20;6.07;;;5.23;;
71164;SDS011;58859;55.132;-1.586;2023-06-14T00:30:46;8.23;;;5.37;;
71164;SDS011;58859;55.132;-1.586;2023-06-14T00:33:12;7.53;;;5.40;;
71164;SDS011;58859;55.132;-1.586;2023-06-14T00:35:37;6.90;;;5.10;;
71164;SDS011;58859;55.132;-1.586;2023-06-14T00:38:03;9.80;;;4.57;;
71164;SDS011;58859;55.132;-1.586;2023-06-14T00:40:28;5.85;;;4.40;;
71164;SDS011;58859;55.132;-1.586;2023-06-14T00:42:54;7.43;;;5.43;;
71164;SDS011;58859;55.132;-1.586;2023-06-14T00:45:19;5.67;;;4.70;;
71164;SDS011;58859;55.132;-1.586;2023-06-14T00:47:45;5.10;;;4.60;;
71164;SDS011;58859;55.132;-1.586;2023-06-14T00:50:11;11.43;;;5.85;;
71164;SDS011;58859;55.132;-1.586;2023-06-14T00:52:38;6.93;;;4.78;;
71164;SDS011;58859;55.132;-1.586;2023-06-14T00:55:04;7.03;;;4.90;;
71164;SDS011;58859;55.132;-1.586;2023-06-14T00:57:30;5.43;;;4.45;;
71164;SDS011;58859;55.132;-1.586;2023-06-14T00:59:56;6.67;;;4.70;;
71164;SDS011;58859;55.132;-1.586;2023-06-14T01:02:21;6.03;;;4.90;;
71164;SDS011;58859;55.132;-1.586;2023-06-14T01:04:47;8.38;;;4.80;;
71164;SDS011;58859;55.132;-1.586;2023-06-14T01:07:17;7.32;;;4.68;;
71164;SDS011;58859;55.132;-1.586;2023-06-14T01:13:19;5.93;;;4.70;;
71164;SDS011;58859;55.132;-1.586;2023-06-14T01:15:48;8.63;;;5.10;;
71164;SDS011;58859;55.132;-1.586;2023-06-14T01:18:15;9.25;;;5.00;;
71164;SDS011;58859;55.132;-1.586;2023-06-14T01:20:45;8.05;;;4.68;;
71164;SDS011;58859;55.132;-1.586;2023-06-14T01:23:15;6.70;;;4.95;;
71164;SDS011;58859;55.132;-1.586;2023-06-14T01:25:42;8.98;;;5.32;;
71164;SDS011;58859;55.132;-1.586;2023-06-14T01:28:10;7.43;;;4.70;;
71164;SDS011;58859;55.132;-1.586;2023-06-14T01:30:41;8.80;;;4.50;;
71164;SDS011;58859;55.132;-1.586;2023-06-14T01:33:10;7.00;;;4.40;;
71164;SDS011;58859;55.132;-1.586;2023-06-14T01:35:38;5.80;;;4.32;;
71164;SDS011;58859;55.132;-1.586;2023-06-14T01:38:04;5.80;;;4.65;;
71164;SDS011;58859;55.132;-1.586;2023-06-14T01:40:33;6.38;;;4.43;;
71164;SDS011;58859;55.132;-1.586;2023-06-14T01:43:00;8.23;;;4.63;;
71164;SDS011;58859;55.132;-1.586;2023-06-14T01:45:27;5.85;;;4.35;;
71164;SDS011;58859;55.132;-1.586;2023-06-14T01:47:54;5.85;;;4.20;;
71164;SDS011;58859;55.132;-1.586;2023-06-14T01:50:20;6.72;;;4.40;;
71164;SDS011;58859;55.132;-1.586;2023-06-14T01:52:46;5.88;;;4.55;;
71164;SDS011;58859;55.132;-1.586;2023-06-14T01:55:11;5.10;;;4.47;;
71164;SDS011;58859;55.132;-1.586;2023-06-14T01:57:36;4.80;;;4.20;;
71164;SDS011;58859;55.132;-1.586;2023-06-14T02:00:03;9.57;;;4.47;;
71164;SDS011;58859;55.132;-1.586;2023-06-14T02:02:33;4.90;;;4.10;;
71164;SDS011;58859;55.132;-1.586;2023-06-14T02:04:58;5.73;;;4.30;;
71164;SDS011;58859;55.132;-1.586;2023-06-14T02:07:23;6.60;;;4.20;;
71164;SDS011;58859;55.132;-1.586;2023-06-14T02:09:49;5.00;;;4.22;;
71164;SDS011;58859;55.132;-1.586;2023-06-14T02:12:15;5.23;;;3.70;;
71164;SDS011;58859;55.132;-1.586;2023-06-14T02:14:40;5.57;;;4.30;;
71164;SDS011;58859;55.132;-1.586;2023-06-14T02:17:05;7.07;;;4.10;;
71164;SDS011;58859;55.132;-1.586;2023-06-14T02:19:31;5.13;;;4.28;;
71164;SDS011;58859;55.132;-1.586;2023-06-14T02:21:57;7.33;;;4.77;;
71164;SDS011;58859;55.132;-1.586;2023-06-14T02:24:22;5.40;;;4.75;;
71164;SDS011;58859;55.132;-1.586;2023-06-14T02:26:48;6.80;;;4.35;;
71164;SDS011;58859;55.132;-1.586;2023-06-14T02:29:14;7.60;;;4.25;;
71164;SDS011;58859;55.132;-1.586;2023-06-14T02:31:40;5.93;;;4.53;;
71164;SDS011;58859;55.132;-1.586;2023-06-14T02:34:06;6.30;;;4.78;;
71164;SDS011;58859;55.132;-1.586;2023-06-14T02:36:34;8.80;;;5.07;;
71164;SDS011;58859;55.132;-1.586;2023-06-14T02:39:00;5.47;;;4.78;;
71164;SDS011;58859;55.132;-1.586;2023-06-14T02:41:25;6.55;;;4.25;;
71164;SDS011;58859;55.132;-1.586;2023-06-14T02:43:51;4.93;;;4.43;;
71164;SDS011;58859;55.132;-1.586;2023-06-14T02:46:17;7.88;;;4.78;;
71164;SDS011;58859;55.132;-1.586;2023-06-14T02:48:42;6.03;;;4.57;;
71164;SDS011;58859;55.132;-1.586;2023-06-14T02:51:08;6.03;;;4.38;;
71164;SDS011;58859;55.132;-1.586;2023-06-14T02:53:34;5.90;;;4.47;;
71164;SDS011;58859;55.132;-1.586;2023-06-14T02:56:00;6.97;;;4.40;;
71164;SDS011;58859;55.132;-1.586;2023-06-14T02:58:26;5.82;;;4.10;;
71164;SDS011;58859;55.132;-1.586;2023-06-14T03:00:52;7.63;;;4.97;;
71164;SDS011;58859;55.132;-1.586;2023-06-14T03:03:20;7.35;;;4.72;;
71164;SDS011;58859;55.132;-1.586;2023-06-14T03:05:47;6.47;;;4.82;;
71164;SDS011;58859;55.132;-1.586;2023-06-14T03:08:14;8.32;;;5.45;;
71164;SDS011;58859;55.132;-1.586;2023-06-14T03:10:50;6.20;;;5.20;;
71164;SDS011;58859;55.132;-1.586;2023-06-14T03:13:16;8.75;;;5.32;;
71164;SDS011;58859;55.132;-1.586;2023-06-14T03:15:41;9.63;;;5.80;;
71164;SDS011;58859;55.132;-1.586;2023-06-14T03:18:08;6.50;;;5.28;;
71164;SDS011;58859;55.132;-1.586;2023-06-14T03:20:40;7.80;;;4.80;;
71164;SDS011;58859;55.132;-1.586;2023-06-14T03:23:08;8.52;;;5.47;;
71164;SDS011;58859;55.132;-1.586;2023-06-14T03:25:33;8.00;;;5.00;;
71164;SDS011;58859;55.132;-1.586;2023-06-14T03:28:03;5.53;;;4.70;;
71164;SDS011;58859;55.132;-1.586;2023-06-14T03:30:31;8.45;;;5.30;;
71164;SDS011;58859;55.132;-1.586;2023-06-14T03:32:57;5.67;;;4.90;;
71164;SDS011;58859;55.132;-1.586;2023-06-14T03:35:23;7.78;;;5.10;;
71164;SDS011;58859;55.132;-1.586;2023-06-14T03:37:49;8.38;;;5.00;;
71164;SDS011;58859;55.132;-1.586;2023-06-14T03:40:15;9.40;;;4.90;;
71164;SDS011;58859;55.132;-1.586;2023-06-14T03:42:43;7.03;;;4.85;;
71164;SDS011;58859;55.132;-1.586;2023-06-14T03:45:09;8.90;;;4.90;;
71164;SDS011;58859;55.132;-1.586;2023-06-14T03:47:34;5.90;;;5.10;;
71164;SDS011;58859;55.132;-1.586;2023-06-14T03:50:01;7.93;;;5.38;;
71164;SDS011;58859;55.132;-1.586;2023-06-14T03:52:27;9.23;;;5.00;;
71164;SDS011;58859;55.132;-1.586;2023-06-14T03:54:53;6.60;;;5.15;;
71164;SDS011;58859;55.132;-1.586;2023-06-14T03:57:19;6.20;;;5.27;;
71164;SDS011;58859;55.132;-1.586;2023-06-14T03:59:45;9.13;;;5.30;;
71164;SDS011;58859;55.132;-1.586;2023-06-14T04:02:10;8.27;;;4.67;;
71164;SDS011;58859;55.132;-1.586;2023-06-14T04:04:36;9.13;;;6.10;;
71164;SDS011;58859;55.132;-1.586;2023-06-14T04:07:02;8.27;;;5.57;;
71164;SDS011;58859;55.132;-1.586;2023-06-14T04:09:31;6.13;;;4.93;;
71164;SDS011;58859;55.132;-1.586;2023-06-14T04:11:56;8.68;;;5.32;;
71164;SDS011;58859;55.132;-1.586;2023-06-14T04:14:22;12.57;;;5.53;;
71164;SDS011;58859;55.132;-1.586;2023-06-14T04:16:48;6.93;;;5.30;;
71164;SDS011;58859;55.132;-1.586;2023-06-14T04:19:14;7.17;;;5.00;;
71164;SDS011;58859;55.132;-1.586;2023-06-14T04:21:40;9.23;;;4.97;;
71164;SDS011;58859;55.132;-1.586;2023-06-14T04:24:06;6.90;;;5.43;;
71164;SDS011;58859;55.132;-1.586;2023-06-14T04:26:37;5.53;;;4.78;;
71164;SDS011;58859;55.132;-1.586;2023-06-14T04:29:04;9.35;;;4.95;;
71164;SDS011;58859;55.132;-1.586;2023-06-14T04:31:30;10.98;;;5.72;;
71164;SDS011;58859;55.132;-1.586;2023-06-14T04:33:58;6.97;;;4.80;;
71164;SDS011;58859;55.132;-1.586;2023-06-14T04:36:24;8.55;;;4.50;;
71164;SDS011;58859;55.132;-1.586;2023-06-14T04:38:50;10.60;;;4.87;;
71164;SDS011;58859;55.132;-1.586;2023-06-14T04:41:19;7.55;;;4.65;;
71164;SDS011;58859;55.132;-1.586;2023-06-14T04:43:47;5.93;;;4.63;;
71164;SDS011;58859;55.132;-1.586;2023-06-14T04:46:14;7.22;;;4.60;;
71164;SDS011;58859;55.132;-1.586;2023-06-14T04:48:41;7.22;;;4.60;;
71164;SDS011;58859;55.132;-1.586;2023-06-14T04:51:10;6.13;;;4.70;;
71164;SDS011;58859;55.132;-1.586;2023-06-14T04:53:36;5.88;;;4.70;;
71164;SDS011;58859;55.132;-1.586;2023-06-14T04:56:02;7.80;;;4.75;;
71164;SDS011;58859;55.132;-1.586;2023-06-14T04:58:28;7.47;;;4.45;;
71164;SDS011;58859;55.132;-1.586;2023-06-14T05:00:54;6.83;;;4.67;;
71164;SDS011;58859;55.132;-1.586;2023-06-14T05:03:21;6.70;;;4.57;;
71164;SDS011;58859;55.132;-1.586;2023-06-14T05:05:46;8.30;;;4.83;;
71164;SDS011;58859;55.132;-1.586;2023-06-14T05:08:12;5.67;;;4.37;;
71164;SDS011;58859;55.132;-1.586;2023-06-14T05:10:37;6.15;;;4.80;;
71164;SDS011;58859;55.132;-1.586;2023-06-14T05:13:04;6.80;;;4.68;;
71164;SDS011;58859;55.132;-1.586;2023-06-14T05:15:29;7.30;;;4.53;;
71164;SDS011;58859;55.132;-1.586;2023-06-14T05:17:55;5.87;;;4.90;;
71164;SDS011;58859;55.132;-1.586;2023-06-14T05:20:24;9.53;;;4.57;;
71164;SDS011;58859;55.132;-1.586;2023-06-14T05:22:50;4.95;;;4.38;;
71164;SDS011;58859;55.132;-1.586;2023-06-14T05:25:18;8.95;;;4.60;;
71164;SDS011;58859;55.132;-1.586;2023-06-14T05:27:44;8.25;;;4.80;;
71164;SDS011;58859;55.132;-1.586;2023-06-14T05:30:09;7.20;;;4.80;;
71164;SDS011;58859;55.132;-1.586;2023-06-14T05:32:35;9.95;;;4.63;;
71164;SDS011;58859;55.132;-1.586;2023-06-14T05:35:01;6.73;;;4.87;;
71164;SDS011;58859;55.132;-1.586;2023-06-14T05:37:26;6.47;;;4.57;;
71164;SDS011;58859;55.132;-1.586;2023-06-14T05:39:51;9.07;;;4.80;;
71164;SDS011;58859;55.132;-1.586;2023-06-14T05:42:17;9.77;;;5.22;;
71164;SDS011;58859;55.132;-1.586;2023-06-14T05:44:42;8.73;;;4.07;;
71164;SDS011;58859;55.132;-1.586;2023-06-14T05:47:08;5.97;;;4.57;;
71164;SDS011;58859;55.132;-1.586;2023-06-14T05:49:33;7.73;;;4.83;;
71164;SDS011;58859;55.132;-1.586;2023-06-14T05:51:58;5.90;;;4.57;;
71164;SDS011;58859;55.132;-1.586;2023-06-14T05:54:24;7.90;;;5.07;;
71164;SDS011;58859;55.132;-1.586;2023-06-14T05:56:49;6.18;;;3.97;;
71164;SDS011;58859;55.132;-1.586;2023-06-14T05:59:14;6.65;;;4.28;;
71164;SDS011;58859;55.132;-1.586;2023-06-14T06:01:40;7.73;;;4.53;;
71164;SDS011;58859;55.132;-1.586;2023-06-14T06:04:05;9.57;;;4.10;;
71164;SDS011;58859;55.132;-1.586;2023-06-14T06:06:31;9.03;;;4.07;;
71164;SDS011;58859;55.132;-1.586;2023-06-14T06:08:57;4.55;;;4.13;;
71164;SDS011;58859;55.132;-1.586;2023-06-14T06:11:23;6.43;;;3.95;;
71164;SDS011;58859;55.132;-1.586;2023-06-14T06:13:48;5.87;;;3.80;;
71164;SDS011;58859;55.132;-1.586;2023-06-14T06:16:14;5.90;;;3.50;;
71164;SDS011;58859;55.132;-1.586;2023-06-14T06:18:40;7.80;;;3.70;;
71164;SDS011;58859;55.132;-1.586;2023-06-14T06:21:05;4.63;;;3.77;;
71164;SDS011;58859;55.132;-1.586;2023-06-14T06:23:31;6.90;;;3.35;;
71164;SDS011;58859;55.132;-1.586;2023-06-14T06:25:57;8.20;;;3.83;;
71164;SDS011;58859;55.132;-1.586;2023-06-14T06:28:22;5.45;;;3.65;;
71164;SDS011;58859;55.132;-1.586;2023-06-14T06:30:48;4.77;;;3.43;;
71164;SDS011;58859;55.132;-1.586;2023-06-14T06:33:13;6.17;;;3.67;;
71164;SDS011;58859;55.132;-1.586;2023-06-14T06:35:39;7.07;;;3.88;;
71164;SDS011;58859;55.132;-1.586;2023-06-14T06:38:05;6.85;;;3.55;;
71164;SDS011;58859;55.132;-1.586;2023-06-14T06:40:30;10.07;;;3.67;;
71164;SDS011;58859;55.132;-1.586;2023-06-14T06:42:56;3.63;;;3.22;;
71164;SDS011;58859;55.132;-1.586;2023-06-14T06:45:21;5.17;;;3.40;;
71164;SDS011;58859;55.132;-1.586;2023-06-14T06:47:48;5.88;;;3.53;;
71164;SDS011;58859;55.132;-1.586;2023-06-14T06:50:14;5.10;;;3.10;;
71164;SDS011;58859;55.132;-1.586;2023-06-14T06:52:39;4.63;;;3.05;;
71164;SDS011;58859;55.132;-1.586;2023-06-14T06:55:05;2.65;;;2.45;;
71164;SDS011;58859;55.132;-1.586;2023-06-14T06:57:31;4.07;;;3.03;;
71164;SDS011;58859;55.132;-1.586;2023-06-14T06:59:56;5.10;;;2.67;;
71164;SDS011;58859;55.132;-1.586;2023-06-14T07:02:22;5.10;;;2.67;;
71164;SDS011;58859;55.132;-1.586;2023-06-14T07:04:47;6.20;;;2.97;;
71164;SDS011;58859;55.132;-1.586;2023-06-14T07:07:13;5.17;;;3.00;;
71164;SDS011;58859;55.132;-1.586;2023-06-14T07:09:38;3.90;;;2.67;;
71164;SDS011;58859;55.132;-1.586;2023-06-14T07:12:04;3.77;;;2.43;;
71164;SDS011;58859;55.132;-1.586;2023-06-14T07:14:29;3.38;;;2.42;;
71164;SDS011;58859;55.132;-1.586;2023-06-14T07:16:55;4.70;;;2.70;;
71164;SDS011;58859;55.132;-1.586;2023-06-14T07:19:20;3.10;;;2.70;;
71164;SDS011;58859;55.132;-1.586;2023-06-14T07:21:46;2.97;;;2.27;;
71164;SDS011;58859;55.132;-1.586;2023-06-14T07:24:11;4.40;;;2.20;;
71164;SDS011;58859;55.132;-1.586;2023-06-14T07:26:37;4.90;;;2.90;;
71164;SDS011;58859;55.132;-1.586;2023-06-14T07:29:02;4.40;;;2.27;;
71164;SDS011;58859;55.132;-1.586;2023-06-14T07:31:28;3.33;;;2.38;;
71164;SDS011;58859;55.132;-1.586;2023-06-14T07:33:53;3.63;;;2.17;;
71164;SDS011;58859;55.132;-1.586;2023-06-14T07:36:18;3.33;;;2.17;;
71164;SDS011;58859;55.132;-1.586;2023-06-14T07:38:44;4.88;;;2.22;;
71164;SDS011;58859;55.132;-1.586;2023-06-14T07:41:11;3.70;;;1.93;;
71164;SDS011;58859;55.132;-1.586;2023-06-14T07:43:36;5.15;;;2.38;;
71164;SDS011;58859;55.132;-1.586;2023-06-14T07:46:02;5.60;;;2.30;;
71164;SDS011;58859;55.132;-1.586;2023-06-14T07:48:27;3.13;;;2.00;;
71164;SDS011;58859;55.132;-1.586;2023-06-14T07:50:53;4.47;;;2.13;;
71164;SDS011;58859;55.132;-1.586;2023-06-14T07:53:18;2.57;;;1.93;;
71164;SDS011;58859;55.132;-1.586;2023-06-14T07:55:44;4.80;;;2.00;;
71164;SDS011;58859;55.132;-1.586;2023-06-14T07:58:09;6.23;;;2.10;;
71164;SDS011;58859;55.132;-1.586;2023-06-14T08:00:35;2.20;;;2.00;;
71164;SDS011;58859;55.132;-1.586;2023-06-14T08:03:01;2.38;;;1.73;;
71164;SDS011;58859;55.132;-1.586;2023-06-14T08:05:27;1.93;;;1.70;;
71164;SDS011;58859;55.132;-1.586;2023-06-14T08:07:54;3.60;;;1.90;;
71164;SDS011;58859;55.132;-1.586;2023-06-14T08:10:20;2.30;;;1.97;;
71164;SDS011;58859;55.132;-1.586;2023-06-14T08:12:46;2.90;;;1.80;;
71164;SDS011;58859;55.132;-1.586;2023-06-14T08:15:11;2.67;;;1.70;;
71164;SDS011;58859;55.132;-1.586;2023-06-14T08:17:37;2.03;;;1.83;;
71164;SDS011;58859;55.132;-1.586;2023-06-14T08:20:02;1.80;;;1.57;;
71164;SDS011;58859;55.132;-1.586;2023-06-14T08:22:30;5.30;;;2.03;;
71164;SDS011;58859;55.132;-1.586;2023-06-14T08:24:57;2.33;;;1.63;;
71164;SDS011;58859;55.132;-1.586;2023-06-14T08:27:23;2.10;;;1.70;;
71164;SDS011;58859;55.132;-1.586;2023-06-14T08:29:48;2.88;;;1.80;;
71164;SDS011;58859;55.132;-1.586;2023-06-14T08:32:14;2.85;;;1.80;;
71164;SDS011;58859;55.132;-1.586;2023-06-14T08:34:39;2.93;;;1.70;;
71164;SDS011;58859;55.132;-1.586;2023-06-14T08:37:05;3.50;;;2.10;;
71164;SDS011;58859;55.132;-1.586;2023-06-14T08:39:31;2.75;;;1.83;;
71164;SDS011;58859;55.132;-1.586;2023-06-14T08:41:57;2.50;;;1.80;;
71164;SDS011;58859;55.132;-1.586;2023-06-14T08:44:23;3.58;;;1.65;;
71164;SDS011;58859;55.132;-1.586;2023-06-14T08:46:48;2.50;;;1.50;;
71164;SDS011;58859;55.132;-1.586;2023-06-14T08:49:16;3.28;;;1.52;;
71164;SDS011;58859;55.132;-1.586;2023-06-14T08:51:42;3.85;;;1.85;;
71164;SDS011;58859;55.132;-1.586;2023-06-14T08:54:09;2.95;;;1.70;;
71164;SDS011;58859;55.132;-1.586;2023-06-14T08:56:37;4.05;;;1.70;;
71164;SDS011;58859;55.132;-1.586;2023-06-14T08:59:03;2.17;;;1.40;;
71164;SDS011;58859;55.132;-1.586;2023-06-14T09:01:32;2.45;;;1.45;;
71164;SDS011;58859;55.132;-1.586;2023-06-14T09:03:59;1.77;;;1.50;;
71164;SDS011;58859;55.132;-1.586;2023-06-14T09:06:24;2.83;;;1.57;;
71164;SDS011;58859;55.132;-1.586;2023-06-14T09:08:50;2.83;;;1.43;;
71164;SDS011;58859;55.132;-1.586;2023-06-14T09:11:17;2.90;;;1.48;;
71164;SDS011;58859;55.132;-1.586;2023-06-14T09:13:44;1.75;;;1.50;;
71164;SDS011;58859;55.132;-1.586;2023-06-14T09:16:10;3.28;;;2.00;;
71164;SDS011;58859;55.132;-1.586;2023-06-14T09:18:37;1.93;;;1.33;;
71164;SDS011;58859;55.132;-1.586;2023-06-14T09:21:08;2.05;;;1.73;;
71164;SDS011;58859;55.132;-1.586;2023-06-14T09:23:38;2.08;;;1.70;;
71164;SDS011;58859;55.132;-1.586;2023-06-14T09:26:08;1.60;;;1.50;;
71164;SDS011;58859;55.132;-1.586;2023-06-14T09:28:47;4.13;;;1.88;;
71164;SDS011;58859;55.132;-1.586;2023-06-14T09:31:15;3.37;;;1.60;;
71164;SDS011;58859;55.132;-1.586;2023-06-14T09:33:43;4.63;;;1.90;;
71164;SDS011;58859;55.132;-1.586;2023-06-14T09:36:16;1.63;;;1.52;;
71164;SDS011;58859;55.132;-1.586;2023-06-14T09:38:56;3.90;;;1.67;;
71164;SDS011;58859;55.132;-1.586;2023-06-14T09:41:32;3.08;;;1.90;;
71164;SDS011;58859;55.132;-1.586;2023-06-14T09:44:01;1.73;;;1.40;;
71164;SDS011;58859;55.132;-1.586;2023-06-14T09:46:29;2.85;;;1.85;;
71164;SDS011;58859;55.132;-1.586;2023-06-14T09:48:55;3.45;;;1.63;;
71164;SDS011;58859;55.132;-1.586;2023-06-14T09:51:24;2.10;;;1.85;;
71164;SDS011;58859;55.132;-1.586;2023-06-14T09:53:51;4.03;;;1.50;;
71164;SDS011;58859;55.132;-1.586;2023-06-14T09:56:19;2.57;;;1.80;;
71164;SDS011;58859;55.132;-1.586;2023-06-14T09:58:49;1.92;;;1.70;;
71164;SDS011;58859;55.132;-1.586;2023-06-14T10:01:19;2.80;;;1.70;;
71164;SDS011;58859;55.132;-1.586;2023-06-14T10:03:45;3.00;;;1.80;;
71164;SDS011;58859;55.132;-1.586;2023-06-14T10:06:13;3.28;;;1.65;;
71164;SDS011;58859;55.132;-1.586;2023-06-14T10:08:39;3.07;;;1.80;;
71164;SDS011;58859;55.132;-1.586;2023-06-14T10:11:05;3.47;;;1.63;;
71164;SDS011;58859;55.132;-1.586;2023-06-14T10:13:31;2.33;;;1.70;;
71164;SDS011;58859;55.132;-1.586;2023-06-14T10:16:20;2.47;;;2.20;;
71164;SDS011;58859;55.132;-1.586;2023-06-14T10:18:53;2.00;;;1.40;;
71164;SDS011;58859;55.132;-1.586;2023-06-14T10:23:56;2.90;;;1.70;;
71164;SDS011;58859;55.132;-1.586;2023-06-14T10:26:28;2.67;;;1.90;;
71164;SDS011;58859;55.132;-1.586;2023-06-14T10:28:58;2.57;;;1.70;;
71164;SDS011;58859;55.132;-1.586;2023-06-14T10:31:45;4.57;;;1.60;;
71164;SDS011;58859;55.132;-1.586;2023-06-14T10:34:12;3.03;;;2.00;;
71164;SDS011;58859;55.132;-1.586;2023-06-14T10:36:50;3.38;;;1.67;;
71164;SDS011;58859;55.132;-1.586;2023-06-14T10:39:29;2.30;;;1.58;;
71164;SDS011;58859;55.132;-1.586;2023-06-14T10:41:55;3.33;;;1.90;;
71164;SDS011;58859;55.132;-1.586;2023-06-14T10:46:53;1.77;;;1.63;;
71164;SDS011;58859;55.132;-1.586;2023-06-14T10:49:20;2.30;;;1.45;;
71164;SDS011;58859;55.132;-1.586;2023-06-14T10:52:02;3.65;;;1.70;;
71164;SDS011;58859;55.132;-1.586;2023-06-14T10:54:28;3.88;;;1.65;;
71164;SDS011;58859;55.132;-1.586;2023-06-14T10:56:53;2.90;;;1.70;;
71164;SDS011;58859;55.132;-1.586;2023-06-14T10:59:20;1.92;;;1.80;;
71164;SDS011;58859;55.132;-1.586;2023-06-14T11:05:03;2.08;;;1.73;;
71164;SDS011;58859;55.132;-1.586;2023-06-14T11:13:02;2.95;;;1.65;;
71164;SDS011;58859;55.132;-1.586;2023-06-14T11:15:32;3.33;;;2.13;;
71164;SDS011;58859;55.132;-1.586;2023-06-14T11:18:07;3.03;;;1.92;;
71164;SDS011;58859;55.132;-1.586;2023-06-14T11:20:36;2.20;;;1.60;;
71164;SDS011;58859;55.132;-1.586;2023-06-14T11:23:02;2.83;;;1.60;;
71164;SDS011;58859;55.132;-1.586;2023-06-14T11:25:28;1.88;;;1.67;;
71164;SDS011;58859;55.132;-1.586;2023-06-14T11:27:54;4.43;;;2.00;;
71164;SDS011;58859;55.132;-1.586;2023-06-14T11:30:20;2.60;;;1.63;;
71164;SDS011;58859;55.132;-1.586;2023-06-14T11:32:47;3.97;;;1.85;;
71164;SDS011;58859;55.132;-1.586;2023-06-14T11:35:13;1.50;;;1.40;;
71164;SDS011;58859;55.132;-1.586;2023-06-14T11:37:39;3.25;;;1.95;;
71164;SDS011;58859;55.132;-1.586;2023-06-14T11:40:06;4.93;;;1.80;;
71164;SDS011;58859;55.132;-1.586;2023-06-14T11:42:33;2.50;;;1.40;;
71164;SDS011;58859;55.132;-1.586;2023-06-14T11:44:59;2.60;;;1.42;;
71164;SDS011;58859;55.132;-1.586;2023-06-14T11:47:33;1.63;;;1.45;;
71164;SDS011;58859;55.132;-1.586;2023-06-14T11:50:02;1.67;;;1.40;;
71164;SDS011;58859;55.132;-1.586;2023-06-14T11:52:29;1.63;;;1.53;;
71164;SDS011;58859;55.132;-1.586;2023-06-14T11:54:54;4.05;;;1.58;;
71164;SDS011;58859;55.132;-1.586;2023-06-14T11:57:21;3.45;;;1.80;;
71164;SDS011;58859;55.132;-1.586;2023-06-14T11:59:46;3.03;;;1.47;;
71164;SDS011;58859;55.132;-1.586;2023-06-14T12:02:16;4.32;;;1.80;;
71164;SDS011;58859;55.132;-1.586;2023-06-14T12:04:51;2.73;;;1.60;;
71164;SDS011;58859;55.132;-1.586;2023-06-14T12:07:18;4.65;;;1.50;;
71164;SDS011;58859;55.132;-1.586;2023-06-14T12:12:20;7.25;;;2.03;;
71164;SDS011;58859;55.132;-1.586;2023-06-14T12:14:47;2.28;;;1.55;;
71164;SDS011;58859;55.132;-1.586;2023-06-14T12:17:13;1.73;;;1.47;;
71164;SDS011;58859;55.132;-1.586;2023-06-14T12:19:42;3.05;;;1.98;;
71164;SDS011;58859;55.132;-1.586;2023-06-14T12:22:12;3.45;;;1.52;;
71164;SDS011;58859;55.132;-1.586;2023-06-14T12:24:38;2.33;;;1.55;;
71164;SDS011;58859;55.132;-1.586;2023-06-14T12:27:04;1.83;;;1.30;;
71164;SDS011;58859;55.132;-1.586;2023-06-14T12:29:30;2.30;;;1.30;;
71164;SDS011;58859;55.132;-1.586;2023-06-14T12:31:56;1.52;;;1.40;;
71164;SDS011;58859;55.132;-1.586;2023-06-14T12:34:22;3.40;;;1.23;;
71164;SDS011;58859;55.132;-1.586;2023-06-14T12:36:49;1.77;;;1.60;;
71164;SDS011;58859;55.132;-1.586;2023-06-14T12:39:15;2.20;;;1.50;;
71164;SDS011;58859;55.132;-1.586;2023-06-14T12:41:41;2.23;;;1.40;;
71164;SDS011;58859;55.132;-1.586;2023-06-14T12:44:06;1.45;;;1.33;;
71164;SDS011;58859;55.132;-1.586;2023-06-14T12:46:32;5.20;;;1.63;;
71164;SDS011;58859;55.132;-1.586;2023-06-14T12:48:58;2.88;;;1.55;;
71164;SDS011;58859;55.132;-1.586;2023-06-14T12:51:23;2.47;;;1.70;;
71164;SDS011;58859;55.132;-1.586;2023-06-14T12:53:50;1.98;;;1.73;;
71164;SDS011;58859;55.132;-1.586;2023-06-14T12:56:16;2.77;;;1.70;;
71164;SDS011;58859;55.132;-1.586;2023-06-14T12:58:41;2.50;;;1.43;;
71164;SDS011;58859;55.132;-1.586;2023-06-14T13:01:07;2.08;;;1.63;;
71164;SDS011;58859;55.132;-1.586;2023-06-14T13:03:33;1.80;;;1.40;;
71164;SDS011;58859;55.132;-1.586;2023-06-14T13:06:01;2.92;;;1.45;;
71164;SDS011;58859;55.132;-1.586;2023-06-14T13:08:28;2.00;;;1.40;;
71164;SDS011;58859;55.132;-1.586;2023-06-14T13:10:53;1.57;;;1.40;;
71164;SDS011;58859;55.132;-1.586;2023-06-14T13:13:19;1.87;;;1.40;;
71164;SDS011;58859;55.132;-1.586;2023-06-14T13:15:45;2.53;;;1.52;;
71164;SDS011;58859;55.132;-1.586;2023-06-14T13:18:11;2.50;;;1.52;;
71164;SDS011;58859;55.132;-1.586;2023-06-14T13:20:38;3.40;;;1.40;;
71164;SDS011;58859;55.132;-1.586;2023-06-14T13:23:04;4.13;;;1.92;;
71164;SDS011;58859;55.132;-1.586;2023-06-14T13:25:32;2.08;;;1.85;;
71164;SDS011;58859;55.132;-1.586;2023-06-14T13:27:58;4.50;;;1.60;;
71164;SDS011;58859;55.132;-1.586;2023-06-14T13:30:23;2.40;;;1.80;;
71164;SDS011;58859;55.132;-1.586;2023-06-14T13:32:48;3.37;;;1.60;;
71164;SDS011;58859;55.132;-1.586;2023-06-14T13:35:15;2.13;;;1.70;;
71164;SDS011;58859;55.132;-1.586;2023-06-14T13:37:41;1.90;;;1.80;;
71164;SDS011;58859;55.132;-1.586;2023-06-14T13:40:06;3.03;;;1.77;;
71164;SDS011;58859;55.132;-1.586;2023-06-14T13:42:32;2.05;;;1.65;;
71164;SDS011;58859;55.132;-1.586;2023-06-14T13:44:58;6.33;;;1.90;;
71164;SDS011;58859;55.132;-1.586;2023-06-14T13:47:23;2.35;;;1.55;;
71164;SDS011;58859;55.132;-1.586;2023-06-14T13:49:49;2.03;;;1.50;;
71164;SDS011;58859;55.132;-1.586;2023-06-14T13:52:14;3.13;;;1.70;;
71164;SDS011;58859;55.132;-1.586;2023-06-14T13:54:40;6.82;;;2.03;;
71164;SDS011;58859;55.132;-1.586;2023-06-14T13:57:07;3.03;;;1.20;;
71164;SDS011;58859;55.132;-1.586;2023-06-14T13:59:32;1.50;;;1.33;;
71164;SDS011;58859;55.132;-1.586;2023-06-14T14:01:58;2.00;;;1.80;;
71164;SDS011;58859;55.132;-1.586;2023-06-14T14:04:23;2.93;;;2.10;;
71164;SDS011;58859;55.132;-1.586;2023-06-14T14:06:49;3.70;;;1.50;;
71164;SDS011;58859;55.132;-1.586;2023-06-14T14:09:14;2.53;;;1.90;;
71164;SDS011;58859;55.132;-1.586;2023-06-14T14:11:40;4.13;;;1.70;;
71164;SDS011;58859;55.132;-1.586;2023-06-14T14:14:07;3.08;;;1.40;;
71164;SDS011;58859;55.132;-1.586;2023-06-14T14:16:33;1.58;;;1.30;;
71164;SDS011;58859;55.132;-1.586;2023-06-14T14:18:59;3.25;;;1.80;;
71164;SDS011;58859;55.132;-1.586;2023-06-14T14:21:25;3.07;;;1.57;;
71164;SDS011;58859;55.132;-1.586;2023-06-14T14:23:50;3.22;;;1.50;;
71164;SDS011;58859;55.132;-1.586;2023-06-14T14:26:16;1.43;;;1.20;;
71164;SDS011;58859;55.132;-1.586;2023-06-14T14:28:42;3.75;;;1.50;;
71164;SDS011;58859;55.132;-1.586;2023-06-14T14:31:07;2.77;;;1.50;;
71164;SDS011;58859;55.132;-1.586;2023-06-14T14:33:32;2.17;;;1.60;;
71164;SDS011;58859;55.132;-1.586;2023-06-14T14:35:59;3.78;;;1.60;;
71164;SDS011;58859;55.132;-1.586;2023-06-14T14:38:29;2.10;;;1.53;;
71164;SDS011;58859;55.132;-1.586;2023-06-14T14:40:54;3.17;;;1.58;;
71164;SDS011;58859;55.132;-1.586;2023-06-14T14:43:20;2.30;;;1.53;;
71164;SDS011;58859;55.132;-1.586;2023-06-14T14:45:45;4.20;;;1.50;;
71164;SDS011;58859;55.132;-1.586;2023-06-14T14:48:10;2.73;;;1.50;;
71164;SDS011;58859;55.132;-1.586;2023-06-14T14:50:36;3.30;;;1.90;;